EZY81E EGCC-EGNS
Flight info
| Callsign | EZY81E |
|---|---|
| Flight time | 0h 26m |
| Altitude | 18000 |
| Route | ASMIM L975 WAL M146 LUSOD DCT IOM |
| Aircraft | A320/M-SDE3FGHIRWY/LB1 |
Departure
| Time | 2026-04-24 06:25 |
|---|---|
| Airport | Manchester Airport (EGCC) |
Arrival
| Time | 2026-04-24 06:52 |
|---|---|
| Airport | Isle of Man Airport (EGNS) |
| Time | Latitude | Longitude | Altitude | Speed | Heading |
|---|---|---|---|---|---|
| 2026-04-24 06:17 | 53.36078 | -2.27507 | 248 ft | 0 kts | 96° |
| 2026-04-24 06:21 | 53.36080 | -2.27534 | 247 ft | 2 kts | 97° |
| 2026-04-24 06:21 | 53.36082 | -2.27561 | 247 ft | 2 kts | 98° |
| 2026-04-24 06:21 | 53.36084 | -2.27588 | 247 ft | 2 kts | 108° |
| 2026-04-24 06:21 | 53.36093 | -2.27611 | 247 ft | 2 kts | 179° |
| 2026-04-24 06:22 | 53.36099 | -2.27611 | 247 ft | 0 kts | 187° |
| 2026-04-24 06:22 | 53.36095 | -2.27611 | 247 ft | 5 kts | 181° |
| 2026-04-24 06:22 | 53.36021 | -2.27625 | 247 ft | 12 kts | 187° |
| 2026-04-24 06:22 | 53.35933 | -2.27640 | 247 ft | 14 kts | 186° |
| 2026-04-24 06:23 | 53.35832 | -2.27656 | 247 ft | 16 kts | 186° |
| 2026-04-24 06:23 | 53.35721 | -2.27626 | 247 ft | 17 kts | 159° |
| 2026-04-24 06:23 | 53.35613 | -2.27516 | 250 ft | 18 kts | 140° |
| 2026-04-24 06:23 | 53.35533 | -2.27404 | 260 ft | 13 kts | 140° |
| 2026-04-24 06:24 | 53.35471 | -2.27318 | 262 ft | 11 kts | 140° |
| 2026-04-24 06:24 | 53.35410 | -2.27234 | 260 ft | 12 kts | 141° |
| 2026-04-24 06:24 | 53.35325 | -2.27201 | 256 ft | 16 kts | 187° |
| 2026-04-24 06:24 | 53.35185 | -2.27233 | 245 ft | 24 kts | 187° |
| 2026-04-24 06:25 | 53.35015 | -2.27324 | 239 ft | 27 kts | 228° |
| 2026-04-24 06:25 | 53.34867 | -2.27620 | 240 ft | 60 kts | 231° |
| 2026-04-24 06:25 | 53.34388 | -2.28608 | 221 ft | 153 kts | 230° |
| 2026-04-24 06:25 | 53.33656 | -2.30091 | 921 ft | 171 kts | 230° |
| 2026-04-24 06:26 | 53.32831 | -2.31745 | 1686 ft | 198 kts | 230° |
| 2026-04-24 06:26 | 53.32059 | -2.33733 | 2494 ft | 218 kts | 243° |
| 2026-04-24 06:26 | 53.31776 | -2.36344 | 3393 ft | 242 kts | 277° |
| 2026-04-24 06:26 | 53.32171 | -2.39145 | 4674 ft | 248 kts | 284° |
| 2026-04-24 06:27 | 53.32525 | -2.41978 | 5974 ft | 253 kts | 274° |
| 2026-04-24 06:27 | 53.32338 | -2.44970 | 6754 ft | 271 kts | 254° |
| 2026-04-24 06:27 | 53.31812 | -2.48005 | 7561 ft | 282 kts | 253° |
| 2026-04-24 06:27 | 53.31292 | -2.50820 | 8464 ft | 287 kts | 253° |
| 2026-04-24 06:28 | 53.30690 | -2.53977 | 9513 ft | 291 kts | 253° |
| 2026-04-24 06:28 | 53.30074 | -2.57210 | 10534 ft | 296 kts | 253° |
| 2026-04-24 06:28 | 53.29448 | -2.60538 | 11495 ft | 301 kts | 253° |
| 2026-04-24 06:28 | 53.28829 | -2.63869 | 12049 ft | 322 kts | 253° |
| 2026-04-24 06:29 | 53.28128 | -2.67669 | 12516 ft | 347 kts | 253° |
| 2026-04-24 06:29 | 53.27399 | -2.71632 | 12884 ft | 371 kts | 253° |
| 2026-04-24 06:29 | 53.26614 | -2.75887 | 13182 ft | 395 kts | 253° |
| 2026-04-24 06:29 | 53.25910 | -2.80428 | 13503 ft | 413 kts | 264° |
| 2026-04-24 06:30 | 53.26145 | -2.85234 | 14180 ft | 418 kts | 287° |
| 2026-04-24 06:30 | 53.27332 | -2.89664 | 14846 ft | 421 kts | 303° |
| 2026-04-24 06:30 | 53.29101 | -2.93610 | 15530 ft | 424 kts | 312° |
| 2026-04-24 06:30 | 53.31077 | -2.97159 | 16194 ft | 428 kts | 315° |
| 2026-04-24 06:31 | 53.33134 | -3.00710 | 16838 ft | 433 kts | 314° |
| 2026-04-24 06:31 | 53.35156 | -3.04406 | 17425 ft | 438 kts | 311° |
| 2026-04-24 06:31 | 53.37091 | -3.08283 | 18010 ft | 442 kts | 309° |
| 2026-04-24 06:31 | 53.38960 | -3.12324 | 18326 ft | 446 kts | 309° |
| 2026-04-24 06:32 | 53.40993 | -3.16247 | 18386 ft | 448 kts | 313° |
| 2026-04-24 06:32 | 53.43102 | -3.20077 | 18383 ft | 448 kts | 314° |
| 2026-04-24 06:32 | 53.45253 | -3.23868 | 18358 ft | 447 kts | 315° |
| 2026-04-24 06:32 | 53.47417 | -3.27587 | 18361 ft | 446 kts | 315° |
| 2026-04-24 06:33 | 53.49606 | -3.31301 | 18355 ft | 447 kts | 315° |
| 2026-04-24 06:33 | 53.51765 | -3.34955 | 18363 ft | 448 kts | 315° |
| 2026-04-24 06:33 | 53.53942 | -3.38645 | 18363 ft | 447 kts | 315° |
| 2026-04-24 06:33 | 53.56122 | -3.42353 | 18363 ft | 448 kts | 315° |
| 2026-04-24 06:34 | 53.58227 | -3.46225 | 18363 ft | 448 kts | 307° |
| 2026-04-24 06:34 | 53.59722 | -3.50818 | 18360 ft | 449 kts | 290° |
| 2026-04-24 06:34 | 53.60447 | -3.55846 | 18351 ft | 449 kts | 280° |
| 2026-04-24 06:34 | 53.61133 | -3.60974 | 18349 ft | 450 kts | 287° |
| 2026-04-24 06:35 | 53.62070 | -3.66020 | 18352 ft | 450 kts | 288° |
| 2026-04-24 06:35 | 53.63001 | -3.70973 | 18350 ft | 450 kts | 288° |
| 2026-04-24 06:35 | 53.63955 | -3.76053 | 18345 ft | 450 kts | 288° |
| 2026-04-24 06:35 | 53.64898 | -3.81078 | 18345 ft | 450 kts | 288° |
| 2026-04-24 06:36 | 53.65658 | -3.85137 | 18342 ft | 450 kts | 288° |
| 2026-04-24 06:36 | 53.66586 | -3.90097 | 18341 ft | 434 kts | 288° |
| 2026-04-24 06:36 | 53.67444 | -3.94701 | 18345 ft | 412 kts | 287° |
| 2026-04-24 06:36 | 53.68264 | -3.99272 | 18327 ft | 392 kts | 287° |
| 2026-04-24 06:37 | 53.68945 | -4.03246 | 18318 ft | 378 kts | 287° |
| 2026-04-24 06:37 | 53.69676 | -4.07525 | 18316 ft | 377 kts | 287° |
| 2026-04-24 06:37 | 53.70417 | -4.11774 | 18337 ft | 374 kts | 287° |
| 2026-04-24 06:37 | 53.71163 | -4.15916 | 18220 ft | 361 kts | 287° |
| 2026-04-24 06:38 | 53.71852 | -4.19876 | 18087 ft | 349 kts | 287° |
| 2026-04-24 06:38 | 53.72517 | -4.23760 | 17948 ft | 338 kts | 287° |
| 2026-04-24 06:38 | 53.73231 | -4.27480 | 17812 ft | 327 kts | 296° |
| 2026-04-24 06:38 | 53.74407 | -4.30592 | 17675 ft | 315 kts | 317° |
| 2026-04-24 06:39 | 53.76116 | -4.32752 | 17572 ft | 301 kts | 328° |
| 2026-04-24 06:39 | 53.77827 | -4.34686 | 17390 ft | 292 kts | 328° |
| 2026-04-24 06:39 | 53.79501 | -4.36578 | 17095 ft | 289 kts | 328° |
| 2026-04-24 06:39 | 53.81159 | -4.38452 | 16776 ft | 287 kts | 328° |
| 2026-04-24 06:40 | 53.82828 | -4.40337 | 16450 ft | 285 kts | 328° |
| 2026-04-24 06:40 | 53.84480 | -4.42201 | 16141 ft | 283 kts | 328° |
| 2026-04-24 06:40 | 53.86109 | -4.44046 | 15815 ft | 282 kts | 326° |
| 2026-04-24 06:40 | 53.87427 | -4.46308 | 15524 ft | 283 kts | 302° |
| 2026-04-24 06:41 | 53.88043 | -4.49329 | 15210 ft | 282 kts | 275° |
| 2026-04-24 06:41 | 53.87942 | -4.52675 | 14878 ft | 281 kts | 262° |
| 2026-04-24 06:41 | 53.87641 | -4.55988 | 14627 ft | 277 kts | 259° |
| 2026-04-24 06:41 | 53.87317 | -4.59075 | 14555 ft | 263 kts | 258° |
| 2026-04-24 06:42 | 53.87003 | -4.61968 | 14279 ft | 253 kts | 259° |
| 2026-04-24 06:42 | 53.86709 | -4.64785 | 13749 ft | 254 kts | 259° |
| 2026-04-24 06:42 | 53.86527 | -4.67528 | 13222 ft | 255 kts | 273° |
| 2026-04-24 06:42 | 53.86986 | -4.70409 | 12737 ft | 251 kts | 296° |
| 2026-04-24 06:43 | 53.87773 | -4.73032 | 12230 ft | 250 kts | 299° |
| 2026-04-24 06:43 | 53.88608 | -4.75630 | 11729 ft | 250 kts | 299° |
| 2026-04-24 06:43 | 53.89427 | -4.78167 | 11255 ft | 248 kts | 299° |
| 2026-04-24 06:43 | 53.90254 | -4.80739 | 10775 ft | 247 kts | 300° |
| 2026-04-24 06:44 | 53.90980 | -4.83032 | 10371 ft | 246 kts | 299° |
| 2026-04-24 06:44 | 53.91800 | -4.85653 | 9985 ft | 253 kts | 299° |
| 2026-04-24 06:44 | 53.92650 | -4.88349 | 10090 ft | 258 kts | 299° |
| 2026-04-24 06:44 | 53.93471 | -4.90978 | 10031 ft | 245 kts | 299° |
| 2026-04-24 06:45 | 53.94261 | -4.93505 | 9540 ft | 243 kts | 299° |
| 2026-04-24 06:45 | 53.95070 | -4.96061 | 9046 ft | 242 kts | 299° |
| 2026-04-24 06:45 | 53.95850 | -4.98497 | 8814 ft | 230 kts | 299° |
| 2026-04-24 06:45 | 53.96598 | -5.00819 | 8589 ft | 220 kts | 299° |
| 2026-04-24 06:46 | 53.97429 | -5.02950 | 8275 ft | 215 kts | 319° |
| 2026-04-24 06:46 | 53.98732 | -5.04024 | 7966 ft | 207 kts | 355° |
| 2026-04-24 06:46 | 54.00079 | -5.03613 | 7639 ft | 199 kts | 31° |
| 2026-04-24 06:46 | 54.01266 | -5.02357 | 7277 ft | 198 kts | 38° |
| 2026-04-24 06:47 | 54.02353 | -5.00979 | 6931 ft | 197 kts | 45° |
| 2026-04-24 06:47 | 54.03340 | -4.99367 | 6549 ft | 194 kts | 50° |
| 2026-04-24 06:47 | 54.04123 | -4.97536 | 6033 ft | 192 kts | 60° |
| 2026-04-24 06:47 | 54.04858 | -4.95672 | 5546 ft | 190 kts | 63° |
| 2026-04-24 06:48 | 54.05468 | -4.93659 | 5055 ft | 187 kts | 70° |
| 2026-04-24 06:48 | 54.05833 | -4.91588 | 4561 ft | 184 kts | 81° |
| 2026-04-24 06:48 | 54.06063 | -4.89447 | 4011 ft | 183 kts | 85° |
| 2026-04-24 06:48 | 54.06253 | -4.87283 | 3460 ft | 186 kts | 86° |
| 2026-04-24 06:49 | 54.06430 | -4.85126 | 3074 ft | 186 kts | 84° |
| 2026-04-24 06:49 | 54.06609 | -4.82914 | 2747 ft | 187 kts | 85° |
| 2026-04-24 06:49 | 54.06784 | -4.80739 | 2444 ft | 187 kts | 84° |
| 2026-04-24 06:49 | 54.06959 | -4.78545 | 2153 ft | 184 kts | 84° |
| 2026-04-24 06:50 | 54.07125 | -4.76482 | 1879 ft | 167 kts | 85° |
| 2026-04-24 06:50 | 54.07274 | -4.74608 | 1609 ft | 152 kts | 85° |
| 2026-04-24 06:50 | 54.07411 | -4.72884 | 1359 ft | 143 kts | 85° |
| 2026-04-24 06:50 | 54.07542 | -4.71224 | 1138 ft | 139 kts | 85° |
| 2026-04-24 06:51 | 54.07670 | -4.69602 | 924 ft | 137 kts | 84° |
| 2026-04-24 06:51 | 54.07764 | -4.68007 | 726 ft | 134 kts | 87° |
| 2026-04-24 06:51 | 54.07861 | -4.66427 | 517 ft | 135 kts | 85° |
| 2026-04-24 06:51 | 54.08017 | -4.64834 | 277 ft | 135 kts | 76° |
| 2026-04-24 06:52 | 54.08217 | -4.63293 | 59 ft | 133 kts | 79° |
| 2026-04-24 06:52 | 54.08355 | -4.62172 | 32 ft | 39 kts | 78° |
| 2026-04-24 06:52 | 54.08406 | -4.61750 | 29 ft | 33 kts | 77° |
| 2026-04-24 06:52 | 54.08490 | -4.61437 | 24 ft | 27 kts | 14° |
| 2026-04-24 06:53 | 54.08532 | -4.61485 | 25 ft | 4 kts | 267° |
| 2026-04-24 06:53 | 54.08532 | -4.61602 | 26 ft | 16 kts | 274° |
| 2026-04-24 06:53 | 54.08552 | -4.61862 | 31 ft | 27 kts | 268° |
| 2026-04-24 06:53 | 54.08509 | -4.62233 | 38 ft | 35 kts | 259° |
| 2026-04-24 06:54 | 54.08459 | -4.62644 | 40 ft | 36 kts | 258° |
| 2026-04-24 06:54 | 54.08429 | -4.62960 | 38 ft | 19 kts | 292° |
| 2026-04-24 06:54 | 54.08493 | -4.62998 | 39 ft | 8 kts | 358° |
| 2026-04-24 06:54 | 54.08540 | -4.63018 | 39 ft | 6 kts | 345° |
| 2026-04-24 06:55 | 54.08575 | -4.63045 | 39 ft | 5 kts | 327° |
| 2026-04-24 06:55 | 54.08598 | -4.63078 | 39 ft | 4 kts | 317° |
| 2026-04-24 06:55 | 54.08615 | -4.63106 | 40 ft | 3 kts | 317° |
| 2026-04-24 06:55 | 54.08627 | -4.63126 | 40 ft | 2 kts | 313° |
| 2026-04-24 06:56 | 54.08630 | -4.63142 | 40 ft | 4 kts | 290° |
| 2026-04-24 06:56 | 54.08624 | -4.63183 | 40 ft | 3 kts | 241° |
| 2026-04-24 06:56 | 54.08613 | -4.63201 | 39 ft | 3 kts | 225° |
| 2026-04-24 06:56 | 54.08612 | -4.63203 | 39 ft | 0 kts | 225° |